FW0379 Weather Reports


Display with metric or nautical units.
time (UTC)temp
F
wind
direction
speed
MPH
gust
MPH
rain 1hr
in
rain 24hr
in
rain mn
in
humidity
%
barometer
mb
20190419021948 82 3 0.0 3.0 0.00 0.00 0.00 35 1010.8
20190419011943 83 284 1.0 3.0 0.00 0.00 0.00 24 1011.4
20190419001937 82 301 1.0 6.0 0.00 0.00 0.00 26 1012.1
20190418231932 81 258 2.0 6.0 0.00 0.00 0.00 30 1012.4
20190418221926 79 242 2.0 4.0 0.00 0.00 0.00 37 1013.8
20190418211924 77 277 1.0 4.0 0.00 0.00 0.00 35 1014.6
20190418201914 74 275 1.0 4.0 0.00 0.00 0.00 42 1015.3
20190418191908 72 176 2.0 3.0 0.00 0.00 0.00 41 1016.3
20190418181903 69 313 1.0 3.0 0.00 0.00 0.00 46 1017.3
20190418171857 64 209 0.0 3.0 0.00 0.00 0.00 53 1017.3
20190418161853 61 170 0.0 4.0 0.00 0.00 0.00 56 1018.0
20190418151847 53 234 2.0 3.0 0.00 0.00 0.00 76 1018.6
20190418141842 48 52 1.0 4.0 0.00 0.00 0.00 89 1018.6
20190418131837 49 269 0.0 8.0 0.00 0.00 0.00 91 1018.3
20190418121833 49 135 1.0 6.0 0.00 0.00 0.00 90 1018.6
20190418111828 50 54 2.0 4.0 0.00 0.00 0.00 85 1019.0
20190418101823 49 164 0.0 3.0 0.00 0.00 0.00 92 1019.4
20190418091821 51 102 1.0 3.0 0.00 0.00 0.00 90 1019.8
20190418081815 51 91 2.0 3.0 0.00 0.00 0.00 88 1020.1
20190418071814 0 0.0 0.0 0.00 0.00 0.00